createdAt,value
2022-12-23T05:07:00.473Z,36.40
2022-12-23T05:10:03.200Z,35.10
2022-12-23T05:13:05.343Z,35.42
2022-12-23T05:16:07.973Z,36.00
2022-12-23T05:19:10.617Z,35.80
2022-12-23T05:22:13.066Z,35.13
2022-12-23T05:25:15.271Z,35.83
2022-12-23T05:28:17.680Z,34.17
2022-12-23T05:31:19.814Z,35.65
2022-12-23T05:34:22.380Z,34.20
2022-12-23T05:37:24.482Z,33.05
2022-12-23T05:40:28.167Z,32.88
2022-12-23T05:43:35.361Z,32.53
2022-12-23T05:46:37.938Z,32.47
2022-12-23T05:49:40.129Z,32.20
2022-12-23T05:52:42.475Z,32.45
2022-12-23T05:55:44.614Z,31.02
2022-12-23T05:58:46.968Z,27.87
2022-12-23T06:01:49.801Z,28.02
2022-12-23T06:04:52.238Z,28.98
2022-12-23T06:07:54.576Z,29.98
2022-12-23T06:10:57.103Z,28.42
2022-12-23T06:13:59.182Z,28.35
2022-12-23T06:17:01.631Z,27.73
2022-12-23T06:20:04.787Z,27.55
2022-12-23T06:23:07.256Z,27.60
2022-12-23T06:26:09.389Z,27.83
2022-12-23T06:29:11.800Z,27.48
2022-12-23T06:32:14.309Z,27.52
2022-12-23T06:35:16.763Z,27.83
2022-12-23T06:38:18.902Z,28.20
2022-12-23T06:41:21.245Z,27.95
2022-12-23T06:44:23.392Z,28.60
2022-12-23T06:47:25.872Z,27.48
2022-12-23T06:50:27.970Z,27.52
2022-12-23T06:53:30.358Z,28.12
2022-12-23T06:56:35.295Z,28.80
2022-12-23T06:59:37.697Z,29.55
2022-12-23T07:02:39.994Z,28.42
2022-12-23T07:05:42.623Z,28.67
2022-12-23T07:08:44.718Z,26.85
2022-12-23T07:11:47.064Z,27.25
2022-12-23T07:14:49.650Z,23.38
2022-12-23T07:17:52.024Z,24.95
2022-12-23T07:20:54.337Z,24.12
2022-12-23T07:23:56.839Z,25.37
2022-12-23T07:26:58.948Z,24.58
2022-12-23T07:30:01.533Z,24.60
2022-12-23T07:33:03.774Z,25.45
2022-12-23T07:36:06.660Z,25.00
2022-12-23T07:39:08.776Z,25.33
2022-12-23T07:45:33.440Z,25.75
2022-12-23T07:48:36.262Z,25.70
2022-12-23T07:51:38.399Z,25.10
2022-12-23T07:54:40.846Z,25.33
2022-12-23T07:57:42.951Z,25.75
2022-12-23T08:00:45.302Z,26.02
2022-12-23T08:03:48.647Z,27.37
2022-12-23T08:06:50.803Z,26.00
2022-12-23T08:09:53.259Z,25.15
2022-12-23T08:12:55.569Z,26.05
2022-12-23T08:15:59.432Z,25.40
2022-12-23T08:19:01.646Z,25.80
2022-12-23T08:22:04.120Z,27.95
2022-12-23T08:25:06.863Z,26.55
2022-12-23T08:28:09.214Z,26.98
2022-12-23T08:31:17.630Z,28.20
2022-12-23T08:34:20.051Z,29.77
2022-12-23T08:37:22.262Z,29.77
2022-12-23T08:40:24.727Z,30.95
2022-12-23T08:43:33.571Z,29.30
2022-12-23T08:46:38.785Z,29.37
2022-12-23T08:49:41.001Z,30.70
2022-12-23T08:52:43.480Z,32.17
2022-12-23T08:55:47.624Z,31.33
2022-12-23T08:58:55.163Z,33.00
2022-12-23T09:01:59.668Z,32.58
2022-12-23T09:05:02.232Z,30.45
2022-12-23T09:08:04.593Z,32.10
2022-12-23T09:11:11.694Z,32.13
2022-12-23T09:14:13.936Z,32.53
2022-12-23T09:17:17.655Z,32.20
2022-12-23T09:20:19.791Z,30.75
2022-12-23T09:23:22.349Z,31.55
2022-12-23T09:26:27.447Z,32.03
2022-12-23T09:29:29.798Z,30.75
2022-12-23T09:32:31.954Z,29.83
2022-12-23T09:35:34.430Z,28.70
2022-12-23T09:38:36.723Z,29.52
2022-12-23T09:42:09.268Z,29.95
2022-12-23T09:45:40.149Z,30.48
2022-12-23T09:48:51.074Z,27.35
2022-12-23T09:52:00.138Z,27.85
2022-12-23T09:55:02.692Z,28.08
2022-12-23T09:58:19.719Z,27.15
2022-12-23T10:01:44.831Z,25.20
2022-12-23T10:05:09.027Z,28.62
2022-12-23T10:08:22.700Z,26.42
2022-12-23T10:11:31.956Z,27.73
2022-12-23T10:14:36.605Z,28.15
2022-12-23T10:17:41.734Z,29.45
2022-12-23T10:20:53.325Z,26.62
2022-12-23T10:23:55.999Z,26.48
2022-12-23T10:27:03.600Z,26.52
2022-12-23T10:30:42.684Z,27.87
2022-12-23T10:33:57.146Z,27.65
2022-12-23T10:37:22.115Z,28.00
2022-12-23T10:41:05.324Z,30.48
2022-12-23T10:44:38.583Z,29.63
2022-12-23T10:47:51.637Z,31.27
2022-12-23T10:51:01.241Z,30.20
2022-12-23T10:54:12.327Z,33.60
2022-12-23T10:57:17.273Z,30.90
2022-12-23T11:00:22.784Z,32.47
2022-12-23T11:03:36.535Z,32.55
2022-12-23T11:06:42.601Z,32.40
2022-12-23T11:10:18.789Z,31.40
2022-12-23T11:13:42.084Z,31.35
2022-12-23T11:16:47.352Z,31.45
2022-12-23T11:20:12.748Z,33.43
2022-12-23T11:23:36.583Z,32.67
2022-12-23T11:26:39.343Z,31.52
2022-12-23T11:29:54.463Z,29.80
2022-12-23T11:32:57.024Z,30.40
2022-12-23T11:36:00.782Z,35.05
2022-12-23T11:39:07.538Z,34.50
2022-12-23T11:42:17.796Z,34.28
2022-12-23T11:45:25.569Z,33.42
2022-12-23T11:48:30.592Z,32.70
2022-12-23T11:51:32.774Z,33.05
2022-12-23T11:54:35.194Z,34.90
2022-12-23T11:57:48.619Z,35.67
2022-12-23T12:00:58.132Z,33.70
2022-12-23T12:04:05.482Z,32.10
2022-12-23T12:07:13.059Z,32.58
2022-12-23T12:10:21.177Z,32.88
2022-12-23T12:13:30.545Z,31.87
2022-12-23T12:16:35.808Z,33.67
2022-12-23T12:19:48.439Z,34.55
2022-12-23T12:22:56.081Z,34.10
2022-12-23T12:26:06.129Z,35.05
2022-12-23T12:29:31.982Z,62.00
2022-12-23T12:32:46.687Z,51.30
2022-12-23T12:36:05.523Z,44.22
2022-12-23T12:39:19.302Z,47.50
2022-12-23T12:42:40.191Z,40.28
2022-12-23T12:45:50.972Z,46.17
2022-12-23T12:49:06.844Z,36.63
2022-12-23T12:52:38.931Z,36.00
2022-12-23T12:55:47.391Z,37.50
2022-12-23T12:58:50.252Z,37.33
2022-12-23T13:01:59.334Z,39.67
2022-12-23T13:05:24.452Z,34.80
2022-12-23T13:08:48.495Z,36.40
2022-12-23T13:12:28.872Z,36.88
2022-12-23T13:15:34.320Z,34.60
2022-12-23T13:18:42.126Z,35.45
2022-12-23T13:21:51.532Z,35.58
2022-12-23T13:25:14.415Z,36.70
2022-12-23T13:28:35.758Z,37.70
2022-12-23T13:31:51.439Z,37.88
2022-12-23T13:35:19.819Z,37.70
2022-12-23T13:39:05.889Z,41.10
2022-12-23T13:42:13.749Z,38.70
2022-12-23T13:45:18.730Z,39.70
2022-12-23T13:48:38.137Z,39.25
2022-12-23T13:51:59.072Z,38.65
2022-12-23T13:55:20.080Z,39.55
2022-12-23T13:58:26.021Z,43.70
2022-12-23T14:01:40.472Z,36.78
2022-12-23T14:04:55.336Z,37.75
2022-12-23T14:08:03.484Z,35.53
2022-12-23T14:11:17.059Z,38.55
2022-12-23T14:14:56.900Z,37.63
2022-12-23T14:18:29.778Z,36.05
2022-12-23T14:21:55.846Z,51.40
2022-12-23T14:25:19.940Z,38.67
2022-12-23T14:29:14.598Z,39.67
2022-12-23T14:32:27.071Z,36.08
2022-12-23T14:35:38.325Z,37.67
2022-12-23T14:39:13.602Z,37.78
2022-12-23T14:42:41.255Z,39.75
2022-12-23T14:45:44.121Z,37.22
2022-12-23T14:48:46.172Z,38.63
2022-12-23T14:51:50.870Z,37.88
2022-12-23T14:55:20.981Z,40.28
2022-12-23T14:58:18.611Z,39.55
2022-12-23T15:01:30.325Z,35.70
2022-12-23T15:04:44.162Z,37.38
2022-12-23T15:07:46.862Z,36.20
2022-12-23T15:10:49.882Z,37.40
2022-12-23T15:13:53.931Z,36.35
2022-12-23T15:16:56.395Z,40.72
2022-12-23T15:20:23.396Z,37.30
2022-12-23T15:23:26.099Z,41.70
2022-12-23T15:26:31.699Z,38.60
